Time;durP1;ratioP1;P1;durP2;ratioP2;P2;SDS_P1;SDS_P2;PMS_P1;PMS_P2;Temp;Humidity;BMP_temperature;BMP_pressure;BME280_temperature;BME280_humidity;BME280_pressure;Samples;Min_cycle;Max_cycle;Signal;HPM_P1;HPM_P2
2022/12/04 00:02:17;;;;;;;58.20;25.17;;;;;;;1.12;100.00;101976.50;5010857;28;20097;-68
2022/12/04 00:04:42;;;;;;;57.05;24.90;;;;;;;1.03;100.00;101984.94;5010400;28;20472;-62
2022/12/04 00:07:07;;;;;;;53.85;23.90;;;;;;;1.09;100.00;101981.63;5010952;28;20392;-66
2022/12/04 00:09:33;;;;;;;60.08;24.65;;;;;;;1.09;100.00;101974.69;5010343;28;20026;-66
2022/12/04 00:11:58;;;;;;;59.17;23.75;;;;;;;0.96;100.00;101989.09;4992544;28;20025;-66
2022/12/04 00:14:23;;;;;;;54.97;24.80;;;;;;;1.02;100.00;101984.91;5009696;28;20057;-65
2022/12/04 00:16:49;;;;;;;56.65;25.25;;;;;;;1.07;100.00;101975.50;5010236;28;20124;-66
2022/12/04 00:19:15;;;;;;;51.47;23.48;;;;;;;1.11;100.00;101977.31;5009178;28;20109;-61
2022/12/04 00:21:40;;;;;;;53.63;24.30;;;;;;;1.07;100.00;101975.50;5009998;28;20049;-65
2022/12/04 00:24:05;;;;;;;57.05;25.80;;;;;;;0.86;100.00;101975.03;5009655;28;20444;-64
2022/12/04 00:26:31;;;;;;;62.13;26.48;;;;;;;0.70;100.00;101976.38;5009515;28;20477;-62
2022/12/04 00:28:56;;;;;;;58.58;26.05;;;;;;;0.92;100.00;101971.69;5008952;28;20396;-64
2022/12/04 00:31:23;;;;;;;53.67;24.23;;;;;;;0.79;100.00;101973.13;5009571;28;20048;-66
2022/12/04 00:33:49;;;;;;;63.38;25.98;;;;;;;0.85;100.00;101975.00;5009282;28;20053;-66
2022/12/04 00:36:18;;;;;;;67.70;26.58;;;;;;;0.75;100.00;101971.25;5009206;28;20066;-62
2022/12/04 00:38:44;;;;;;;59.78;25.15;;;;;;;0.68;100.00;101972.84;4992841;28;20056;-67
2022/12/04 00:41:11;;;;;;;57.13;25.15;;;;;;;0.86;100.00;101966.34;5010779;28;20033;-61
2022/12/04 00:43:36;;;;;;;56.83;25.30;;;;;;;0.96;100.00;101970.94;5010384;28;20400;-62
2022/12/04 00:46:02;;;;;;;62.58;25.38;;;;;;;0.92;100.00;101969.09;4991641;28;20018;-64
2022/12/04 00:48:27;;;;;;;60.95;26.63;;;;;;;0.88;100.00;101975.06;4997861;28;20022;-65
2022/12/04 00:50:57;;;;;;;55.97;25.52;;;;;;;0.69;100.00;101964.22;5030235;28;20089;-61
2022/12/04 00:53:23;;;;;;;59.53;24.85;;;;;;;0.79;100.00;101960.16;5029332;28;20026;-65
2022/12/04 00:55:48;;;;;;;61.70;25.70;;;;;;;0.70;100.00;101955.59;5029277;28;20026;-69
2022/12/04 00:58:13;;;;;;;67.60;27.23;;;;;;;0.72;100.00;101964.28;5030158;28;20025;-66
2022/12/04 01:00:40;;;;;;;58.85;25.70;;;;;;;0.87;100.00;101953.41;5029937;28;20029;-66
2022/12/04 01:03:07;;;;;;;62.65;27.50;;;;;;;0.94;100.00;101949.28;5012311;28;20472;-66
2022/12/04 01:05:37;;;;;;;56.20;24.58;;;;;;;0.80;100.00;101966.19;5029592;28;20091;-69
2022/12/04 01:08:03;;;;;;;60.35;25.50;;;;;;;0.77;100.00;101964.41;5029744;28;20128;-65
2022/12/04 01:10:28;;;;;;;60.67;25.42;;;;;;;0.84;100.00;101970.66;5029267;28;20232;-65
2022/12/04 01:12:53;;;;;;;60.05;25.60;;;;;;;0.93;100.00;101963.06;5029165;28;20030;-64
2022/12/04 01:15:19;;;;;;;57.83;25.80;;;;;;;0.98;100.00;101964.06;5028640;28;20087;-64
2022/12/04 01:17:44;;;;;;;64.50;26.55;;;;;;;1.00;100.00;101961.50;5017381;28;20030;-66
2022/12/04 01:20:11;;;;;;;62.17;26.17;;;;;;;0.86;100.00;101962.06;5010264;28;20046;-64
2022/12/04 01:22:37;;;;;;;68.28;27.92;;;;;;;0.87;100.00;101968.09;5009872;28;20088;-60
2022/12/04 01:25:02;;;;;;;64.53;26.80;;;;;;;1.01;100.00;101965.84;5009447;28;20030;-66
2022/12/04 01:27:27;;;;;;;68.68;27.60;;;;;;;0.95;100.00;101968.28;5009635;28;20076;-64
2022/12/04 01:29:53;;;;;;;62.50;27.35;;;;;;;1.02;100.00;101961.56;5008703;28;20115;-60
2022/12/04 01:32:18;;;;;;;60.75;26.63;;;;;;;1.01;100.00;101963.25;5009542;28;20160;-66
2022/12/04 01:34:43;;;;;;;63.03;27.55;;;;;;;0.94;100.00;101953.56;5009231;28;20096;-65
2022/12/04 01:37:09;;;;;;;59.50;25.70;;;;;;;1.07;100.00;101954.72;5009842;28;20026;-61
2022/12/04 01:39:35;;;;;;;64.93;27.63;;;;;;;0.91;100.00;101956.97;5009463;28;20068;-65
2022/12/04 01:42:00;;;;;;;57.97;26.50;;;;;;;0.91;100.00;101954.38;5009232;28;20491;-65
2022/12/04 01:44:26;;;;;;;64.50;27.15;;;;;;;0.88;100.00;101949.97;4991923;28;20149;-65
2022/12/04 01:46:52;;;;;;;66.88;27.50;;;;;;;0.88;100.00;101954.31;5011273;28;20105;-65
2022/12/04 01:49:25;;;;;;;61.75;28.55;;;;;;;0.97;100.00;101945.88;5012171;28;20116;-65
2022/12/04 01:52:06;;;;;;;60.20;26.65;;;;;;;0.99;100.00;101950.25;5012492;28;20033;-61
2022/12/04 01:54:35;;;;;;;64.75;27.55;;;;;;;1.03;100.00;101956.41;4995032;28;20026;-66
2022/12/04 01:57:03;;;;;;;66.95;28.58;;;;;;;1.05;100.00;101956.44;4994767;28;20391;-65
2022/12/04 01:59:34;;;;;;;65.80;27.25;;;;;;;1.09;100.00;101955.66;4994678;28;20041;-65
2022/12/04 02:02:11;;;;;;;65.22;27.75;;;;;;;0.95;100.00;101961.41;4994624;28;20113;-65
2022/12/04 02:04:37;;;;;;;64.90;28.48;;;;;;;0.97;100.00;101962.28;5012697;28;20033;-65
2022/12/04 02:07:03;;;;;;;64.50;28.13;;;;;;;0.95;100.00;101953.59;5012160;28;20029;-65
2022/12/04 02:09:29;;;;;;;67.60;29.75;;;;;;;0.98;100.00;101958.00;5012151;28;20022;-65
2022/12/04 02:12:07;;;;;;;70.03;29.45;;;;;;;0.90;100.00;101967.31;5012049;28;20030;-65
2022/12/04 02:14:55;;;;;;;68.57;28.63;;;;;;;0.98;100.00;101961.47;4993018;28;20025;-59
2022/12/04 02:17:26;;;;;;;66.95;27.13;;;;;;;1.09;100.00;101959.13;5011967;28;20026;-65
2022/12/04 02:20:26;;;;;;;72.35;29.55;;;;;;;0.93;100.00;101957.88;5011083;28;20056;-57
2022/12/04 02:23:03;;;;;;;72.25;28.35;;;;;;;0.86;100.00;101963.75;5011072;28;20412;-65
2022/12/04 02:25:36;;;;;;;75.03;29.55;;;;;;;0.93;100.00;101957.88;5012091;28;20022;-65
2022/12/04 02:28:03;;;;;;;62.83;25.92;;;;;;;1.03;100.00;101953.81;5011770;28;20026;-65
2022/12/04 02:30:30;;;;;;;71.45;29.40;;;;;;;1.08;100.00;101946.13;4993221;28;20803;-65
2022/12/04 02:32:59;;;;;;;67.07;29.20;;;;;;;1.11;100.00;101943.56;4993932;28;20030;-65
2022/12/04 02:35:28;;;;;;;66.13;29.87;;;;;;;1.06;100.00;101943.50;5013850;28;20033;-59
2022/12/04 02:38:16;;;;;;;68.13;30.30;;;;;;;0.91;100.00;101948.31;4999058;28;20114;-58
2022/12/04 02:40:58;;;;;;;70.20;29.53;;;;;;;0.89;100.00;101940.47;5011833;28;20029;-65
2022/12/04 02:43:25;;;;;;;69.90;28.60;;;;;;;0.98;100.00;101940.72;5031332;28;20026;-65
2022/12/04 02:45:58;;;;;;;64.85;28.63;;;;;;;1.01;100.00;101934.72;5023046;28;20485;-66
2022/12/04 02:48:25;;;;;;;74.03;30.45;;;;;;;0.80;100.00;101929.88;5011253;28;20120;-63
2022/12/04 02:50:52;;;;;;;68.55;28.75;;;;;;;0.95;100.00;101930.25;4992646;28;20041;-62
2022/12/04 02:53:26;;;;;;;64.75;28.48;;;;;;;0.96;100.00;101924.22;4993429;28;20026;-65
2022/12/04 02:55:54;;;;;;;72.00;30.23;;;;;;;0.86;100.00;101932.63;5008846;28;20038;-66
2022/12/04 02:58:48;;;;;;;67.43;29.63;;;;;;;1.06;100.00;101927.03;4992287;28;20038;-67
2022/12/04 03:01:18;;;;;;;67.32;28.65;;;;;;;1.02;100.00;101927.81;5009667;28;20018;-62
2022/12/04 03:04:02;;;;;;;70.30;28.38;;;;;;;0.99;100.00;101923.41;4992883;28;20465;-65
2022/12/04 03:06:30;;;;;;;69.30;29.85;;;;;;;0.74;100.00;101921.13;4993181;28;20548;-66
2022/12/04 03:09:03;;;;;;;70.80;28.15;;;;;;;0.72;100.00;101915.00;4992227;28;20026;-66
2022/12/04 03:11:30;;;;;;;68.97;29.15;;;;;;;0.78;100.00;101926.38;5010711;28;20048;-64
2022/12/04 03:13:59;;;;;;;74.25;30.83;;;;;;;0.80;100.00;101924.69;4991998;28;20026;-65
2022/12/04 03:16:26;;;;;;;;;;;;;;;0.95;100.00;101919.88;4993338;28;20021;-60
2022/12/04 03:18:58;;;;;;;69.18;28.63;;;;;;;0.84;100.00;101919.59;4992957;28;19913;-66
2022/12/04 03:21:27;;;;;;;66.05;29.48;;;;;;;0.84;100.00;101918.75;4992681;28;20136;-63
2022/12/04 03:24:05;;;;;;;67.72;28.70;;;;;;;0.95;100.00;101919.88;5010501;28;20026;-66
2022/12/04 03:26:37;;;;;;;70.18;28.42;;;;;;;0.93;100.00;101915.50;4992857;28;20468;-65
2022/12/04 03:29:10;;;;;;;74.45;30.15;;;;;;;0.88;100.00;101929.22;5009068;28;20033;-66
2022/12/04 03:31:44;;;;;;;66.95;29.02;;;;;;;1.06;100.00;101924.44;5028596;28;20083;-65
2022/12/04 03:34:12;;;;;;;67.65;30.80;;;;;;;1.12;100.00;101927.19;5028112;28;20037;-61
2022/12/04 03:36:46;;;;;;;70.07;31.02;;;;;;;1.11;100.00;101925.41;5028047;28;20070;-62
2022/12/04 03:39:44;;;;;;;66.18;29.88;;;;;;;1.19;100.00;101918.69;5012257;28;20365;-67
2022/12/04 03:42:18;;;;;;;64.57;29.33;;;;;;;1.09;100.00;101916.72;5030046;28;20079;-63
2022/12/04 03:44:52;;;;;;;66.70;29.17;;;;;;;0.98;100.00;101913.88;5027506;28;20116;-64
2022/12/04 03:47:18;;;;;;;66.80;29.15;;;;;;;1.10;100.00;101910.69;5029921;28;20349;-65
2022/12/04 03:49:48;;;;;;;66.20;28.17;;;;;;;0.94;100.00;101907.75;5024815;28;20117;-65
2022/12/04 03:52:24;;;;;;;70.00;29.63;;;;;;;1.06;100.00;101903.66;5010088;28;20026;-65
2022/12/04 03:54:52;;;;;;;72.40;30.75;;;;;;;1.25;100.00;101899.75;4991528;28;20453;-60
2022/12/04 03:57:22;;;;;;;75.25;30.92;;;;;;;0.98;100.00;101896.59;5010054;28;20161;-66
2022/12/04 04:00:13;;;;;;;72.75;31.50;;;;;;;1.00;100.00;101897.47;4991412;28;20034;-66
2022/12/04 04:02:44;;;;;;;64.70;29.73;;;;;;;0.94;100.00;101896.47;4992510;28;20029;-62
2022/12/04 04:05:11;;;;;;;68.20;29.23;;;;;;;0.87;100.00;101898.91;4992657;28;20025;-59
2022/12/04 04:07:49;;;;;;;72.03;31.02;;;;;;;0.90;100.00;101899.84;4992333;28;20026;-62
2022/12/04 04:10:18;;;;;;;72.33;30.87;;;;;;;0.98;100.00;101898.28;5009494;28;20026;-65
2022/12/04 04:24:12;;;;;;;65.65;30.10;;;;;;;0.98;100.00;101899.19;4991718;28;20022;-62
2022/12/04 04:26:37;;;;;;;67.93;30.50;;;;;;;0.96;100.00;101903.44;4982043;28;20041;-68
2022/12/04 04:29:02;;;;;;;;;;;;;;;0.93;100.00;101894.72;4992188;28;20033;-65
2022/12/04 04:31:42;;;;;;;70.28;30.48;;;;;;;0.92;100.00;101893.84;5010340;28;19920;-64
2022/12/04 04:34:18;;;;;;;75.72;31.55;;;;;;;1.08;100.00;101889.00;5010596;28;20038;-64
2022/12/04 04:36:59;;;;;;;68.03;29.67;;;;;;;0.99;100.00;101897.44;5010095;28;20477;-56
2022/12/04 04:39:56;;;;;;;68.55;30.38;;;;;;;0.95;100.00;101893.91;5008986;28;20033;-66
2022/12/04 04:42:32;;;;;;;68.53;30.08;;;;;;;1.11;100.00;101892.53;4986548;28;20041;-64
2022/12/04 04:45:07;;;;;;;66.47;29.55;;;;;;;1.12;100.00;101901.22;5008547;28;20032;-65
2022/12/04 04:47:47;;;;;;;74.82;30.02;;;;;;;1.16;100.00;101903.03;4992885;28;20046;-64
2022/12/04 04:50:13;;;;;;;68.50;29.85;;;;;;;1.24;100.00;101906.66;5010244;28;20046;-64
2022/12/04 04:52:41;;;;;;;72.13;30.13;;;;;;;1.17;100.00;101909.97;4993147;28;20109;-64
2022/12/04 04:55:07;;;;;;;67.50;29.55;;;;;;;1.07;100.00;101908.00;5009156;28;20018;-67
2022/12/04 04:57:36;;;;;;;70.15;30.23;;;;;;;1.19;100.00;101904.81;4992636;28;20053;-62
2022/12/04 05:00:11;;;;;;;65.60;29.42;;;;;;;1.24;100.00;101904.06;5009590;28;20053;-65
2022/12/04 05:02:37;;;;;;;72.18;31.23;;;;;;;1.18;100.00;101908.25;5010243;28;20034;-64
2022/12/04 05:05:02;;;;;;;66.07;30.90;;;;;;;1.30;100.00;101905.06;5008584;28;20546;-65
2022/12/04 05:07:28;;;;;;;66.65;29.80;;;;;;;1.28;100.00;101910.22;5008529;28;20373;-62
2022/12/04 05:09:53;;;;;;;66.32;29.00;;;;;;;1.28;100.00;101909.31;5009656;28;20025;-65
2022/12/04 05:12:18;;;;;;;63.60;28.85;;;;;;;1.30;100.00;101905.06;5009154;28;20057;-63
2022/12/04 05:14:46;;;;;;;69.32;29.05;;;;;;;1.17;100.00;101902.19;5008664;28;20101;-65
2022/12/04 05:17:11;;;;;;;66.25;29.58;;;;;;;1.25;100.00;101913.63;5009204;28;20073;-66
2022/12/04 05:22:28;;;;;;;63.80;28.92;;;;;;;1.27;100.00;101916.25;5013525;28;20040;-65
2022/12/04 05:24:53;;;;;;;69.45;30.73;;;;;;;1.30;100.00;101915.44;5011574;28;20026;-64
2022/12/04 05:27:19;;;;;;;73.72;30.60;;;;;;;1.28;100.00;101910.22;5013556;28;20121;-64
2022/12/04 05:29:45;;;;;;;73.63;31.02;;;;;;;1.20;100.00;101915.22;5019190;28;20061;-64
2022/12/04 05:32:10;;;;;;;65.53;29.90;;;;;;;1.26;100.00;101917.97;5019697;28;20103;-61
2022/12/04 05:34:35;;;;;;;65.35;30.25;;;;;;;1.24;100.00;101921.38;5032072;28;20029;-65
2022/12/04 05:37:01;;;;;;;64.93;29.60;;;;;;;1.20;100.00;101930.81;5028310;28;20037;-65
2022/12/04 05:39:26;;;;;;;64.45;29.05;;;;;;;1.21;100.00;101927.38;5012707;28;20022;-66
2022/12/04 05:41:52;;;;;;;65.05;29.88;;;;;;;1.10;100.00;101923.66;5013453;28;20558;-64
2022/12/04 05:44:17;;;;;;;67.35;30.45;;;;;;;1.16;100.00;101926.41;5024242;28;20431;-66
2022/12/04 05:46:42;;;;;;;69.28;30.20;;;;;;;1.26;100.00;101919.69;5012295;28;20084;-65
2022/12/04 05:49:07;;;;;;;71.53;30.10;;;;;;;1.12;100.00;101932.38;5018015;28;20059;-63
2022/12/04 05:51:33;;;;;;;67.80;28.58;;;;;;;1.30;100.00;101918.03;5021034;28;20072;-64
2022/12/04 05:53:58;;;;;;;73.18;30.67;;;;;;;1.30;100.00;101921.53;5025807;28;20076;-65
2022/12/04 05:56:23;;;;;;;68.85;30.80;;;;;;;1.08;100.00;101925.34;5011508;28;20037;-66
2022/12/04 05:58:49;;;;;;;61.50;28.73;;;;;;;1.16;100.00;101921.22;5011775;28;20109;-67
2022/12/04 06:01:17;;;;;;;70.75;31.42;;;;;;;1.08;100.00;101922.75;5022264;28;20499;-65
2022/12/04 06:03:42;;;;;;;67.28;30.55;;;;;;;1.15;100.00;101924.66;5011276;28;20022;-64
2022/12/04 06:06:13;;;;;;;68.18;30.10;;;;;;;1.22;100.00;101923.06;5009576;28;20396;-65
2022/12/04 06:08:38;;;;;;;72.93;31.05;;;;;;;1.25;100.00;101926.63;5012306;28;20034;-65
2022/12/04 06:11:10;;;;;;;66.15;31.63;;;;;;;1.39;100.00;101924.31;5011212;28;20113;-66
2022/12/04 06:13:35;;;;;;;65.63;30.65;;;;;;;1.42;100.00;101925.22;5010663;28;20033;-61
2022/12/04 06:16:00;;;;;;;66.57;30.35;;;;;;;1.34;100.00;101917.25;5011471;28;20443;-65
2022/12/04 06:18:26;;;;;;;70.45;30.65;;;;;;;1.34;100.00;101923.34;5011392;28;20025;-65
2022/12/04 06:20:51;;;;;;;71.22;29.88;;;;;;;1.32;100.00;101918.97;5010092;28;20432;-65
2022/12/04 06:23:16;;;;;;;68.22;29.02;;;;;;;1.29;100.00;101926.69;4994625;28;20444;-64
2022/12/04 06:25:41;;;;;;;71.03;30.13;;;;;;;1.28;100.00;101922.31;5011448;28;20026;-65
2022/12/04 06:28:07;;;;;;;66.80;30.15;;;;;;;1.25;100.00;101913.63;5013706;28;20491;-65
2022/12/04 06:30:32;;;;;;;67.25;30.75;;;;;;;1.22;100.00;101913.56;5031231;28;20036;-62
2022/12/04 06:32:58;;;;;;;69.47;30.75;;;;;;;1.22;100.00;101908.38;5023552;28;20032;-66
2022/12/04 06:35:23;;;;;;;71.70;31.25;;;;;;;1.26;100.00;101907.59;5018110;28;20384;-64
2022/12/04 06:37:48;;;;;;;73.35;31.88;;;;;;;1.32;100.00;101914.63;5011448;28;20032;-62
2022/12/04 06:40:14;;;;;;;63.78;29.88;;;;;;;1.35;100.00;101919.91;5011244;28;20481;-64
2022/12/04 06:42:39;;;;;;;68.50;30.85;;;;;;;1.35;100.00;101913.81;5024973;28;20105;-57
2022/12/04 06:45:05;;;;;;;67.68;30.23;;;;;;;1.53;100.00;101918.53;5010500;28;20018;-58
2022/12/04 06:47:30;;;;;;;72.53;31.52;;;;;;;1.11;100.00;101925.41;5010359;28;20026;-67
2022/12/04 06:49:56;;;;;;;66.50;28.52;;;;;;;1.27;100.00;101916.25;5010647;28;20031;-66
2022/12/04 06:52:21;;;;;;;69.40;30.98;;;;;;;1.36;100.00;101915.59;5010752;28;20036;-64
2022/12/04 06:54:47;;;;;;;67.82;31.30;;;;;;;1.34;100.00;101907.75;5010021;28;20018;-66
2022/12/04 06:57:12;;;;;;;70.07;31.30;;;;;;;1.38;100.00;101908.69;5010504;28;20092;-66
2022/12/04 06:59:38;;;;;;;67.07;30.52;;;;;;;1.42;100.00;101913.13;5024256;28;20029;-65
2022/12/04 07:02:03;;;;;;;66.50;29.63;;;;;;;1.38;100.00;101911.28;5009993;28;20461;-66
2022/12/04 07:04:28;;;;;;;66.32;30.75;;;;;;;1.19;100.00;101918.69;5010567;28;20113;-60
2022/12/04 07:06:54;;;;;;;72.95;31.77;;;;;;;1.23;100.00;101915.31;5024233;28;20010;-66
2022/12/04 07:09:19;;;;;;;73.68;32.35;;;;;;;1.07;100.00;101918.38;5009788;28;20412;-66
2022/12/04 07:11:45;;;;;;;62.55;30.35;;;;;;;1.25;100.00;101917.94;5013866;28;20432;-58
2022/12/04 07:14:11;;;;;;;66.63;31.00;;;;;;;1.21;100.00;101911.78;5018482;28;20108;-65
2022/12/04 07:16:37;;;;;;;69.85;31.38;;;;;;;1.39;100.00;101918.25;5010153;28;20485;-64
2022/12/04 07:19:03;;;;;;;70.75;29.70;;;;;;;1.32;100.00;101911.19;5009801;28;20036;-67
2022/12/04 07:21:30;;;;;;;70.70;31.80;;;;;;;1.36;100.00;101919.03;5009901;28;20822;-62
2022/12/04 07:23:57;;;;;;;65.45;31.27;;;;;;;1.36;100.00;101913.84;5009481;28;20030;-67
2022/12/04 07:26:23;;;;;;;66.97;30.92;;;;;;;1.26;100.00;101917.97;5010171;28;20025;-66
2022/12/04 07:28:49;;;;;;;65.47;30.77;;;;;;;1.21;100.00;101921.31;5009165;28;20022;-64
2022/12/04 07:31:16;;;;;;;64.78;28.77;;;;;;;1.21;100.00;101922.16;5009758;28;20029;-66
2022/12/04 07:33:43;;;;;;;68.05;30.30;;;;;;;1.13;100.00;101919.44;5010619;28;20468;-66
2022/12/04 07:36:12;;;;;;;68.93;31.42;;;;;;;1.03;100.00;101924.34;5018031;28;20014;-64
2022/12/04 07:38:37;;;;;;;65.72;30.55;;;;;;;1.12;100.00;101922.84;4998589;28;20026;-61
2022/12/04 07:41:04;;;;;;;65.20;28.73;;;;;;;1.17;100.00;101914.31;5006177;28;20026;-65
2022/12/04 07:43:30;;;;;;;69.07;30.92;;;;;;;1.13;100.00;101921.13;5009031;28;20076;-62
2022/12/04 07:45:57;;;;;;;66.05;31.00;;;;;;;1.20;100.00;101922.16;5009633;28;20384;-65
2022/12/04 07:48:23;;;;;;;63.00;29.02;;;;;;;1.07;100.00;101926.19;5009308;28;20101;-64
2022/12/04 07:50:48;;;;;;;65.50;29.70;;;;;;;1.23;100.00;101924.81;5009362;28;20129;-64
2022/12/04 07:53:14;;;;;;;70.95;32.03;;;;;;;1.03;100.00;101933.03;5017952;28;20057;-66
2022/12/04 07:55:39;;;;;;;66.40;30.27;;;;;;;1.18;100.00;101932.53;5014511;28;20465;-58
2022/12/04 07:58:05;;;;;;;64.07;29.45;;;;;;;1.25;100.00;101939.59;5009326;28;20017;-63
2022/12/04 08:00:30;;;;;;;63.42;28.75;;;;;;;1.25;100.00;101937.00;5009410;28;20034;-64
2022/12/04 08:02:55;;;;;;;63.42;29.58;;;;;;;1.31;100.00;101935.38;5008774;28;20073;-66
2022/12/04 08:05:20;;;;;;;60.35;29.45;;;;;;;1.31;100.00;101938.84;5009210;28;20033;-65
2022/12/04 08:07:46;;;;;;;65.88;29.45;;;;;;;1.32;100.00;101937.16;5009178;28;20026;-65
2022/12/04 08:10:12;;;;;;;63.30;28.10;;;;;;;1.31;100.00;101940.56;5008877;28;20037;-65
2022/12/04 08:12:37;;;;;;;64.55;29.98;;;;;;;1.34;100.00;101941.53;5009676;28;20053;-65
2022/12/04 08:15:04;;;;;;;61.13;27.88;;;;;;;1.37;100.00;101958.88;5008353;28;20029;-65
2022/12/04 08:17:29;;;;;;;66.75;31.08;;;;;;;1.49;100.00;101956.56;5008990;28;20059;-64
2022/12/04 08:19:54;;;;;;;63.05;29.17;;;;;;;1.17;100.00;101948.06;5008677;28;20042;-66
2022/12/04 08:22:20;;;;;;;64.53;28.63;;;;;;;1.38;100.00;101956.31;5011426;28;20514;-65
2022/12/04 08:24:45;;;;;;;64.30;28.98;;;;;;;1.46;100.00;101953.03;5027640;28;20104;-65
2022/12/04 08:27:11;;;;;;;62.42;29.83;;;;;;;1.43;100.00;101955.53;5028817;28;20032;-66
2022/12/04 08:29:36;;;;;;;64.75;28.88;;;;;;;1.41;100.00;101955.50;5022481;28;20480;-59
2022/12/04 08:32:02;;;;;;;67.13;29.50;;;;;;;1.40;100.00;101958.97;5024880;28;20038;-65
2022/12/04 08:34:27;;;;;;;64.45;29.13;;;;;;;1.39;100.00;101965.88;5028251;28;20017;-65
2022/12/04 08:36:52;;;;;;;67.07;30.42;;;;;;;1.38;100.00;101963.22;5024234;28;20027;-61
2022/12/04 08:39:17;;;;;;;59.70;28.70;;;;;;;1.42;100.00;101956.41;5023588;28;20438;-64
2022/12/04 08:41:43;;;;;;;64.80;29.58;;;;;;;1.44;100.00;101960.78;5025935;28;20040;-65
2022/12/04 08:44:08;;;;;;;66.03;28.63;;;;;;;1.46;100.00;101966.00;5027379;28;20436;-66
2022/12/04 08:46:33;;;;;;;67.55;29.60;;;;;;;1.38;100.00;101960.63;5004376;28;20493;-66
2022/12/04 08:48:59;;;;;;;63.90;29.33;;;;;;;1.40;100.00;101966.75;5021817;28;20030;-66
2022/12/04 08:51:28;;;;;;;63.13;29.20;;;;;;;1.26;100.00;101971.63;5026658;28;20032;-57
2022/12/04 08:53:55;;;;;;;66.90;30.05;;;;;;;1.44;100.00;101972.91;5025608;28;20028;-64
2022/12/04 08:56:20;;;;;;;66.47;29.90;;;;;;;1.34;100.00;101971.81;5028161;28;20029;-64
2022/12/04 08:58:46;;;;;;;67.22;29.27;;;;;;;1.48;100.00;101972.97;5012245;28;20030;-66
2022/12/04 09:01:12;;;;;;;65.97;30.05;;;;;;;1.50;100.00;101978.22;5024946;28;20103;-59
2022/12/04 09:03:38;;;;;;;69.35;30.58;;;;;;;1.49;100.00;101974.75;5031999;28;20435;-64
2022/12/04 09:06:04;;;;;;;64.10;28.40;;;;;;;1.47;100.00;101979.03;5025555;28;20033;-64
2022/12/04 09:08:30;;;;;;;60.58;28.58;;;;;;;1.45;100.00;101978.13;5018613;28;20034;-66
2022/12/04 09:11:02;;;;;;;62.15;29.48;;;;;;;1.54;100.00;101990.44;5031480;28;20083;-66
2022/12/04 09:13:27;;;;;;;68.07;29.88;;;;;;;1.70;100.00;101983.88;5009062;28;20052;-66
2022/12/04 09:15:52;;;;;;;64.80;30.98;;;;;;;1.64;100.00;101983.72;5027987;28;20079;-66
2022/12/04 09:18:17;;;;;;;63.60;28.83;;;;;;;1.66;100.00;101987.25;5018616;28;20054;-66
2022/12/04 09:20:43;;;;;;;67.22;30.30;;;;;;;1.77;100.00;101979.66;5013493;28;20458;-65
2022/12/04 09:23:08;;;;;;;63.13;29.42;;;;;;;1.74;100.00;101983.06;5025794;28;20455;-65
2022/12/04 09:25:35;;;;;;;66.95;30.33;;;;;;;1.63;100.00;101976.78;5013764;28;20503;-64
2022/12/04 09:28:00;;;;;;;66.22;30.35;;;;;;;1.66;100.00;101975.97;5011154;28;20034;-66
2022/12/04 09:30:25;;;;;;;66.43;30.13;;;;;;;1.86;100.00;101978.97;5011660;28;20045;-66
2022/12/04 09:32:51;;;;;;;68.72;29.70;;;;;;;1.84;100.00;101978.94;5019913;28;20542;-69
2022/12/04 09:35:16;;;;;;;62.78;29.50;;;;;;;1.78;100.00;101981.44;5016828;28;20476;-65
2022/12/04 09:37:41;;;;;;;66.43;29.77;;;;;;;1.94;100.00;101977.44;5011001;28;20030;-63
2022/12/04 09:40:07;;;;;;;69.30;30.63;;;;;;;1.86;100.00;101981.56;5011722;28;20029;-66
2022/12/04 09:42:46;;;;;;;68.82;32.00;;;;;;;1.66;100.00;101975.97;5024551;28;20022;-63
2022/12/04 09:45:15;;;;;;;69.90;27.85;;;;;;;1.72;100.00;101984.75;4994388;28;20030;-67
2022/12/04 09:47:53;;;;;;;67.65;30.55;;;;;;;1.71;100.00;101976.91;4994191;28;20018;-69
2022/12/04 09:50:28;;;;;;;66.05;29.95;;;;;;;1.69;100.00;101971.72;4993895;28;20029;-66
2022/12/04 09:53:09;;;;;;;64.22;28.98;;;;;;;1.85;100.00;101969.44;4994905;28;20026;-61
2022/12/04 09:55:54;;;;;;;69.97;28.77;;;;;;;1.83;100.00;101976.31;4995323;28;20076;-69
2022/12/04 09:58:27;;;;;;;64.63;29.27;;;;;;;1.97;100.00;101979.19;4992106;28;20026;-67
2022/12/04 10:00:53;;;;;;;66.32;29.33;;;;;;;2.04;100.00;101972.41;4992975;28;20084;-65
2022/12/04 10:03:21;;;;;;;67.68;29.58;;;;;;;2.02;100.00;101981.03;5011304;28;20034;-63
2022/12/04 10:06:10;;;;;;;59.88;27.52;;;;;;;2.10;100.00;101975.13;4993014;28;20104;-62
2022/12/04 10:08:50;;;;;;;62.72;29.70;;;;;;;1.95;100.00;101973.97;4991490;28;20034;-66
2022/12/04 10:11:24;;;;;;;60.28;28.70;;;;;;;1.87;100.00;101973.81;4994075;28;20125;-66
2022/12/04 10:14:01;;;;;;;58.50;29.17;;;;;;;1.89;100.00;101979.03;5009361;28;20029;-66
2022/12/04 10:16:49;;;;;;;63.00;29.35;;;;;;;1.93;100.00;101973.09;5000760;28;20121;-63
2022/12/04 10:19:28;;;;;;;64.53;27.70;;;;;;;1.85;100.00;101967.72;5009050;28;20038;-70
2022/12/04 10:22:15;;;;;;;63.22;28.65;;;;;;;1.76;100.00;101973.59;5008200;28;20037;-66
2022/12/04 10:24:47;;;;;;;61.30;28.10;;;;;;;1.72;100.00;101974.34;5001047;28;20038;-64
2022/12/04 10:27:20;;;;;;;61.65;28.30;;;;;;;1.85;100.00;101974.63;4999537;28;20416;-66
2022/12/04 10:29:49;;;;;;;61.40;28.52;;;;;;;1.87;100.00;101970.34;5000053;28;20030;-66
2022/12/04 10:32:19;;;;;;;67.93;29.15;;;;;;;1.65;100.00;101969.88;4987446;28;20034;-65
2022/12/04 10:34:46;;;;;;;58.35;26.83;;;;;;;2.00;100.00;101967.16;5008032;28;20030;-64
2022/12/04 10:37:13;;;;;;;61.95;27.35;;;;;;;1.99;100.00;101961.91;4989043;28;20065;-60
2022/12/04 10:40:00;;;;;;;64.63;28.95;;;;;;;2.17;100.00;101958.81;5000455;28;20049;-63
2022/12/04 10:42:30;;;;;;;58.63;28.40;;;;;;;2.13;100.00;101956.97;4990943;28;20022;-64
2022/12/04 10:44:56;;;;;;;60.92;27.27;;;;;;;2.09;100.00;101956.06;5003224;28;20034;-64
2022/12/04 10:47:22;;;;;;;57.08;25.75;;;;;;;2.10;100.00;101962.13;5006033;28;20041;-64
2022/12/04 10:49:52;;;;;;;55.83;26.48;;;;;;;2.11;100.00;101953.50;5000727;28;20026;-64
2022/12/04 10:52:17;;;;;;;61.58;27.15;;;;;;;2.20;100.00;101956.25;4992606;28;20488;-65
2022/12/04 10:54:50;;;;;;;59.03;26.23;;;;;;;2.25;100.00;101946.81;5009948;28;20109;-64
2022/12/04 10:57:16;;;;;;;51.13;24.27;;;;;;;2.04;100.00;101946.41;5004622;28;20040;-63
2022/12/04 10:59:51;;;;;;;54.17;25.58;;;;;;;1.95;100.00;101949.69;4991201;28;20018;-63
2022/12/04 11:02:24;;;;;;;55.17;24.85;;;;;;;1.86;100.00;101953.88;4993275;28;20049;-65
2022/12/04 11:05:04;;;;;;;56.90;24.00;;;;;;;1.96;100.00;101949.72;4992569;28;20018;-64
2022/12/04 11:07:34;;;;;;;55.15;25.15;;;;;;;2.04;100.00;101942.06;4991554;28;20042;-64
2022/12/04 11:10:16;;;;;;;55.40;24.92;;;;;;;2.06;100.00;101942.09;4997905;28;20026;-64
2022/12/04 11:12:55;;;;;;;57.63;24.10;;;;;;;1.78;100.00;101950.25;4985075;28;20432;-64
2022/12/04 11:15:21;;;;;;;;;;;;;;;1.92;100.00;101954.84;5004367;28;20099;-60
2022/12/04 11:17:46;;;;;;;46.97;22.48;;;;;;;2.16;100.00;101951.84;4999043;28;20316;-63
2022/12/04 11:20:21;;;;;;;50.85;22.88;;;;;;;2.01;100.00;101950.69;5008553;28;20041;-69
2022/12/04 11:22:53;;;;;;;52.55;22.92;;;;;;;1.82;100.00;101940.78;5009868;28;20022;-63
2022/12/04 11:25:20;;;;;;;51.47;23.05;;;;;;;1.65;100.00;101936.09;5009898;28;20029;-64
2022/12/04 11:27:48;;;;;;;54.95;24.05;;;;;;;1.65;100.00;101933.50;5007674;28;20033;-65
2022/12/04 11:30:19;;;;;;;50.05;23.27;;;;;;;1.88;100.00;101931.41;5009431;28;20026;-60
2022/12/04 11:32:45;;;;;;;57.45;24.67;;;;;;;1.85;100.00;101927.84;5008545;28;20171;-63